sensor_id;sensor_type;location;lat;lon;timestamp;pressure;altitude;pressure_sealevel;temperature;humidity
6433;BME280;3249;42.690;23.260;2023-04-28T00:00:24;94475.28;;;5.39;74.45
6433;BME280;3249;42.690;23.260;2023-04-28T00:02:53;94472.69;;;5.33;75.09
6433;BME280;3249;42.690;23.260;2023-04-28T00:05:22;94471.25;;;5.30;74.77
6433;BME280;3249;42.690;23.260;2023-04-28T00:07:51;94474.69;;;5.23;75.42
6433;BME280;3249;42.690;23.260;2023-04-28T00:10:20;94470.69;;;5.14;75.74
6433;BME280;3249;42.690;23.260;2023-04-28T00:12:49;94476.38;;;5.16;76.36
6433;BME280;3249;42.690;23.260;2023-04-28T00:15:18;94468.66;;;5.09;77.58
6433;BME280;3249;42.690;23.260;2023-04-28T00:17:50;94477.03;;;5.03;78.16
6433;BME280;3249;42.690;23.260;2023-04-28T00:20:19;94473.03;;;5.00;77.61
6433;BME280;3249;42.690;23.260;2023-04-28T00:22:48;94468.66;;;4.94;78.00
6433;BME280;3249;42.690;23.260;2023-04-28T00:25:17;94476.50;;;4.93;78.54
6433;BME280;3249;42.690;23.260;2023-04-28T00:27:47;94479.38;;;4.90;79.04
6433;BME280;3249;42.690;23.260;2023-04-28T00:30:16;94467.97;;;4.86;79.57
6433;BME280;3249;42.690;23.260;2023-04-28T00:32:45;94473.44;;;4.83;80.68
6433;BME280;3249;42.690;23.260;2023-04-28T00:35:17;94475.53;;;4.79;80.83
6433;BME280;3249;42.690;23.260;2023-04-28T00:37:46;94480.81;;;4.78;81.49
6433;BME280;3249;42.690;23.260;2023-04-28T00:40:16;94483.88;;;4.73;81.16
6433;BME280;3249;42.690;23.260;2023-04-28T00:42:45;94485.03;;;4.71;81.87
6433;BME280;3249;42.690;23.260;2023-04-28T00:45:14;94489.34;;;4.70;82.35
6433;BME280;3249;42.690;23.260;2023-04-28T00:47:42;94492.06;;;4.69;82.99
6433;BME280;3249;42.690;23.260;2023-04-28T00:50:12;94498.13;;;4.68;83.72
6433;BME280;3249;42.690;23.260;2023-04-28T00:52:44;94488.09;;;4.66;83.05
6433;BME280;3249;42.690;23.260;2023-04-28T00:55:15;94493.53;;;4.63;83.20
6433;BME280;3249;42.690;23.260;2023-04-28T00:57:45;94487.22;;;4.59;83.77
6433;BME280;3249;42.690;23.260;2023-04-28T01:00:14;94487.28;;;4.66;83.36
6433;BME280;3249;42.690;23.260;2023-04-28T01:02:44;94495.31;;;4.63;84.19
6433;BME280;3249;42.690;23.260;2023-04-28T01:05:13;94502.50;;;4.59;83.53
6433;BME280;3249;42.690;23.260;2023-04-28T01:07:45;94498.63;;;4.63;83.49
6433;BME280;3249;42.690;23.260;2023-04-28T01:10:14;94501.72;;;4.59;86.24
6433;BME280;3249;42.690;23.260;2023-04-28T01:12:43;94497.41;;;4.59;87.53
6433;BME280;3249;42.690;23.260;2023-04-28T01:15:15;94440.81;;;3.98;93.61
6433;BME280;3249;42.690;23.260;2023-04-28T01:17:47;94497.41;;;4.08;97.30
6433;BME280;3249;42.690;23.260;2023-04-28T01:20:16;94498.06;;;4.02;98.75
6433;BME280;3249;42.690;23.260;2023-04-28T01:22:48;94498.66;;;3.89;98.91
6433;BME280;3249;42.690;23.260;2023-04-28T01:25:21;94497.94;;;4.18;92.38
6433;BME280;3249;42.690;23.260;2023-04-28T01:27:50;94495.13;;;4.13;97.35
6433;BME280;3249;42.690;23.260;2023-04-28T01:30:20;94498.66;;;3.89;100.00
6433;BME280;3249;42.690;23.260;2023-04-28T01:32:49;94486.44;;;3.62;100.00
6433;BME280;3249;42.690;23.260;2023-04-28T01:35:18;94490.38;;;3.65;100.00
6433;BME280;3249;42.690;23.260;2023-04-28T01:37:48;94493.44;;;3.60;100.00
6433;BME280;3249;42.690;23.260;2023-04-28T01:40:20;94493.75;;;3.57;100.00
6433;BME280;3249;42.690;23.260;2023-04-28T01:42:49;94494.56;;;3.80;97.13
6433;BME280;3249;42.690;23.260;2023-04-28T01:45:18;94498.78;;;3.96;91.21
6433;BME280;3249;42.690;23.260;2023-04-28T01:47:47;94507.66;;;4.00;89.88
6433;BME280;3249;42.690;23.260;2023-04-28T01:50:16;94511.06;;;4.07;87.96
6433;BME280;3249;42.690;23.260;2023-04-28T01:52:45;94501.84;;;4.06;87.72
6433;BME280;3249;42.690;23.260;2023-04-28T01:55:15;94500.00;;;4.00;90.06
6433;BME280;3249;42.690;23.260;2023-04-28T01:57:47;94504.31;;;3.99;87.72
6433;BME280;3249;42.690;23.260;2023-04-28T02:00:18;94504.81;;;3.95;87.73
6433;BME280;3249;42.690;23.260;2023-04-28T02:02:50;94504.81;;;3.95;88.00
6433;BME280;3249;42.690;23.260;2023-04-28T02:05:19;94508.16;;;3.95;88.24
6433;BME280;3249;42.690;23.260;2023-04-28T02:07:50;94504.19;;;3.93;88.56
6433;BME280;3249;42.690;23.260;2023-04-28T02:10:19;94449.09;;;3.55;89.14
6433;BME280;3249;42.690;23.260;2023-04-28T02:12:51;94507.25;;;3.88;89.22
6433;BME280;3249;42.690;23.260;2023-04-28T02:15:20;94500.13;;;3.84;89.54
6433;BME280;3249;42.690;23.260;2023-04-28T02:17:49;94506.78;;;3.85;91.82
6433;BME280;3249;42.690;23.260;2023-04-28T02:20:18;94505.91;;;3.47;99.12
6433;BME280;3249;42.690;23.260;2023-04-28T02:22:47;94491.63;;;3.46;97.51
6433;BME280;3249;42.690;23.260;2023-04-28T02:25:17;94514.41;;;3.40;100.00
6433;BME280;3249;42.690;23.260;2023-04-28T02:27:45;94511.66;;;3.11;100.00
6433;BME280;3249;42.690;23.260;2023-04-28T02:30:17;94508.28;;;3.18;100.00
6433;BME280;3249;42.690;23.260;2023-04-28T02:32:47;94519.00;;;2.98;100.00
6433;BME280;3249;42.690;23.260;2023-04-28T02:35:16;94517.97;;;3.15;100.00
6433;BME280;3249;42.690;23.260;2023-04-28T02:37:46;94512.03;;;2.92;100.00
6433;BME280;3249;42.690;23.260;2023-04-28T02:40:18;94517.06;;;3.08;100.00
6433;BME280;3249;42.690;23.260;2023-04-28T02:42:47;94518.28;;;3.28;100.00
6433;BME280;3249;42.690;23.260;2023-04-28T02:45:18;94524.00;;;3.22;100.00
6433;BME280;3249;42.690;23.260;2023-04-28T02:47:48;94529.31;;;3.43;99.46
6433;BME280;3249;42.690;23.260;2023-04-28T02:50:18;94521.03;;;3.49;96.06
6433;BME280;3249;42.690;23.260;2023-04-28T02:52:47;94527.97;;;3.55;95.92
6433;BME280;3249;42.690;23.260;2023-04-28T02:55:16;94525.25;;;3.26;100.00
6433;BME280;3249;42.690;23.260;2023-04-28T02:57:50;94527.53;;;3.13;100.00
6433;BME280;3249;42.690;23.260;2023-04-28T03:00:23;94534.03;;;3.15;100.00
6433;BME280;3249;42.690;23.260;2023-04-28T03:02:52;94532.31;;;3.08;100.00
6433;BME280;3249;42.690;23.260;2023-04-28T03:05:21;94539.31;;;3.06;100.00
6433;BME280;3249;42.690;23.260;2023-04-28T03:07:49;94535.38;;;3.03;100.00
6433;BME280;3249;42.690;23.260;2023-04-28T03:10:18;94535.50;;;3.10;100.00
6433;BME280;3249;42.690;23.260;2023-04-28T03:12:47;94538.31;;;3.15;100.00
6433;BME280;3249;42.690;23.260;2023-04-28T03:15:17;94540.19;;;3.29;100.00
6433;BME280;3249;42.690;23.260;2023-04-28T03:17:49;94545.28;;;3.29;100.00
6433;BME280;3249;42.690;23.260;2023-04-28T03:20:18;94547.13;;;3.43;99.60
6433;BME280;3249;42.690;23.260;2023-04-28T03:22:47;94553.72;;;3.60;93.21
6433;BME280;3249;42.690;23.260;2023-04-28T03:25:17;94556.84;;;3.70;91.41
6433;BME280;3249;42.690;23.260;2023-04-28T03:27:50;94562.56;;;3.72;92.93
6433;BME280;3249;42.690;23.260;2023-04-28T03:30:19;94558.09;;;3.74;88.70
6433;BME280;3249;42.690;23.260;2023-04-28T03:32:51;94571.56;;;3.82;87.17
6433;BME280;3249;42.690;23.260;2023-04-28T03:35:20;94570.78;;;3.82;86.39
6433;BME280;3249;42.690;23.260;2023-04-28T03:37:50;94579.34;;;3.89;86.27
6433;BME280;3249;42.690;23.260;2023-04-28T03:40:19;94574.06;;;3.90;85.10
6433;BME280;3249;42.690;23.260;2023-04-28T03:43:14;94564.00;;;3.97;84.54
6433;BME280;3249;42.690;23.260;2023-04-28T03:45:58;94585.03;;;4.21;80.91
6433;BME280;3249;42.690;23.260;2023-04-28T03:48:30;94587.03;;;4.48;79.04
6433;BME280;3249;42.690;23.260;2023-04-28T03:51:00;94591.31;;;4.70;76.22
6433;BME280;3249;42.690;23.260;2023-04-28T03:53:30;94532.72;;;4.48;73.55
6433;BME280;3249;42.690;23.260;2023-04-28T03:56:00;94595.69;;;4.99;72.30
6433;BME280;3249;42.690;23.260;2023-04-28T03:58:29;94602.19;;;5.16;70.38
6433;BME280;3249;42.690;23.260;2023-04-28T04:01:00;94613.03;;;5.33;69.02
6433;BME280;3249;42.690;23.260;2023-04-28T04:03:33;94578.00;;;5.12;68.20
6433;BME280;3249;42.690;23.260;2023-04-28T04:06:03;94616.53;;;5.32;68.63
6433;BME280;3249;42.690;23.260;2023-04-28T04:08:32;94610.91;;;5.22;69.29
6433;BME280;3249;42.690;23.260;2023-04-28T04:11:01;94610.34;;;5.12;69.34
6433;BME280;3249;42.690;23.260;2023-04-28T04:13:31;94622.59;;;5.16;69.63
6433;BME280;3249;42.690;23.260;2023-04-28T04:16:05;94615.13;;;5.15;70.99
6433;BME280;3249;42.690;23.260;2023-04-28T04:18:37;94595.47;;;4.86;71.33
6433;BME280;3249;42.690;23.260;2023-04-28T04:21:14;94623.09;;;4.97;72.08
6433;BME280;3249;42.690;23.260;2023-04-28T04:23:44;94630.06;;;5.03;73.13
6433;BME280;3249;42.690;23.260;2023-04-28T04:26:14;94628.47;;;5.02;71.97
6433;BME280;3249;42.690;23.260;2023-04-28T04:28:43;94626.56;;;5.04;71.27
6433;BME280;3249;42.690;23.260;2023-04-28T04:31:15;94641.44;;;5.15;72.21
6433;BME280;3249;42.690;23.260;2023-04-28T04:33:50;94567.06;;;4.74;71.52
6433;BME280;3249;42.690;23.260;2023-04-28T04:36:21;94637.56;;;5.19;71.47
6433;BME280;3249;42.690;23.260;2023-04-28T04:38:50;94640.47;;;5.31;70.44
6433;BME280;3249;42.690;23.260;2023-04-28T04:41:21;94640.22;;;5.40;69.68
6433;BME280;3249;42.690;23.260;2023-04-28T04:44:00;94644.00;;;5.59;70.10
6433;BME280;3249;42.690;23.260;2023-04-28T04:46:36;94641.78;;;5.70;66.72
6433;BME280;3249;42.690;23.260;2023-04-28T04:49:08;94621.81;;;5.59;66.28
6433;BME280;3249;42.690;23.260;2023-04-28T04:51:37;94655.44;;;5.92;66.15
6433;BME280;3249;42.690;23.260;2023-04-28T04:54:07;94656.16;;;5.86;64.83
6433;BME280;3249;42.690;23.260;2023-04-28T04:56:38;94662.00;;;5.94;66.33
6433;BME280;3249;42.690;23.260;2023-04-28T04:59:08;94643.22;;;5.87;66.96
6433;BME280;3249;42.690;23.260;2023-04-28T05:01:59;94662.63;;;6.17;64.77
6433;BME280;3249;42.690;23.260;2023-04-28T05:04:30;94675.41;;;6.17;65.02
6433;BME280;3249;42.690;23.260;2023-04-28T05:07:00;94673.41;;;6.13;63.66
6433;BME280;3249;42.690;23.260;2023-04-28T05:09:30;94671.69;;;6.20;64.62
6433;BME280;3249;42.690;23.260;2023-04-28T05:11:59;94666.22;;;6.23;65.18
6433;BME280;3249;42.690;23.260;2023-04-28T05:14:29;94673.63;;;6.32;66.35
6433;BME280;3249;42.690;23.260;2023-04-28T05:16:58;94677.28;;;6.44;63.70
6433;BME280;3249;42.690;23.260;2023-04-28T05:19:35;94684.19;;;6.44;63.32
6433;BME280;3249;42.690;23.260;2023-04-28T05:22:04;94683.31;;;6.37;63.46
6433;BME280;3249;42.690;23.260;2023-04-28T05:24:36;94678.72;;;6.32;64.42
6433;BME280;3249;42.690;23.260;2023-04-28T05:27:05;94651.03;;;6.00;66.85
6433;BME280;3249;42.690;23.260;2023-04-28T05:29:34;94688.09;;;6.25;67.06
6433;BME280;3249;42.690;23.260;2023-04-28T05:32:06;94665.41;;;6.37;67.06
6433;BME280;3249;42.690;23.260;2023-04-28T05:34:38;94676.69;;;6.63;64.05
6433;BME280;3249;42.690;23.260;2023-04-28T05:37:07;94676.75;;;6.49;63.79
6433;BME280;3249;42.690;23.260;2023-04-28T05:39:39;94672.41;;;6.49;64.25
6433;BME280;3249;42.690;23.260;2023-04-28T05:42:08;94666.47;;;6.28;68.10
6433;BME280;3249;42.690;23.260;2023-04-28T05:44:38;94670.16;;;6.40;64.55
6433;BME280;3249;42.690;23.260;2023-04-28T05:47:07;94672.28;;;6.57;65.37
6433;BME280;3249;42.690;23.260;2023-04-28T05:49:39;94674.03;;;6.50;63.17
6433;BME280;3249;42.690;23.260;2023-04-28T05:52:08;94669.84;;;6.28;67.09
6433;BME280;3249;42.690;23.260;2023-04-28T05:54:37;94677.50;;;6.28;66.06
6433;BME280;3249;42.690;23.260;2023-04-28T05:57:07;94673.84;;;6.52;66.58
6433;BME280;3249;42.690;23.260;2023-04-28T05:59:36;94680.19;;;6.56;64.22
6433;BME280;3249;42.690;23.260;2023-04-28T06:02:05;94687.66;;;6.78;62.34
6433;BME280;3249;42.690;23.260;2023-04-28T06:04:39;94676.34;;;6.87;63.05
6433;BME280;3249;42.690;23.260;2023-04-28T06:07:09;94693.13;;;6.96;60.06
6433;BME280;3249;42.690;23.260;2023-04-28T06:09:39;94688.03;;;6.96;60.32
6433;BME280;3249;42.690;23.260;2023-04-28T06:12:08;94688.94;;;7.10;59.20
6433;BME280;3249;42.690;23.260;2023-04-28T06:14:39;94687.03;;;7.18;55.18
6433;BME280;3249;42.690;23.260;2023-04-28T06:17:08;94685.50;;;7.24;55.50
6433;BME280;3249;42.690;23.260;2023-04-28T06:19:40;94685.72;;;7.29;54.98
6433;BME280;3249;42.690;23.260;2023-04-28T06:22:10;94685.19;;;7.33;56.41
6433;BME280;3249;42.690;23.260;2023-04-28T06:24:39;94690.38;;;7.46;55.42
6433;BME280;3249;42.690;23.260;2023-04-28T06:27:12;94685.34;;;7.59;52.43
6433;BME280;3249;42.690;23.260;2023-04-28T06:29:41;94700.19;;;7.43;52.23
6433;BME280;3249;42.690;23.260;2023-04-28T06:32:11;94671.59;;;7.33;53.09
6433;BME280;3249;42.690;23.260;2023-04-28T06:34:43;94667.84;;;7.35;52.91
6433;BME280;3249;42.690;23.260;2023-04-28T06:37:12;94692.47;;;7.64;52.57
6433;BME280;3249;42.690;23.260;2023-04-28T06:39:41;94697.13;;;7.81;51.69
6433;BME280;3249;42.690;23.260;2023-04-28T06:42:10;94692.16;;;7.73;50.35
6433;BME280;3249;42.690;23.260;2023-04-28T06:44:49;94681.16;;;7.24;54.27
6433;BME280;3249;42.690;23.260;2023-04-28T06:47:19;94688.25;;;7.50;52.56
6433;BME280;3249;42.690;23.260;2023-04-28T06:49:53;94684.97;;;7.35;55.61
6433;BME280;3249;42.690;23.260;2023-04-28T06:52:22;94690.84;;;7.56;55.01
6433;BME280;3249;42.690;23.260;2023-04-28T06:54:54;94688.34;;;7.35;54.87
6433;BME280;3249;42.690;23.260;2023-04-28T06:57:23;94683.63;;;7.39;55.34
6433;BME280;3249;42.690;23.260;2023-04-28T06:59:54;94679.34;;;7.46;54.84
6433;BME280;3249;42.690;23.260;2023-04-28T07:02:22;94678.38;;;7.19;56.44
6433;BME280;3249;42.690;23.260;2023-04-28T07:04:54;94681.06;;;7.66;54.41
6433;BME280;3249;42.690;23.260;2023-04-28T07:07:23;94684.00;;;7.63;51.09
6433;BME280;3249;42.690;23.260;2023-04-28T07:09:53;94684.75;;;7.91;49.90
6433;BME280;3249;42.690;23.260;2023-04-28T07:12:22;94682.47;;;8.09;47.99
6433;BME280;3249;42.690;23.260;2023-04-28T07:14:53;94688.09;;;8.32;47.43
6433;BME280;3249;42.690;23.260;2023-04-28T07:17:22;94688.09;;;8.32;47.13
6433;BME280;3249;42.690;23.260;2023-04-28T07:19:54;94691.09;;;8.42;47.86
6433;BME280;3249;42.690;23.260;2023-04-28T07:22:24;94682.38;;;8.30;47.68
6433;BME280;3249;42.690;23.260;2023-04-28T07:24:52;94684.38;;;7.94;48.24
6433;BME280;3249;42.690;23.260;2023-04-28T07:27:22;94681.13;;;8.20;49.52
6433;BME280;3249;42.690;23.260;2023-04-28T07:29:51;94675.50;;;8.37;49.19
6433;BME280;3249;42.690;23.260;2023-04-28T07:32:20;94683.81;;;8.46;44.76
6433;BME280;3249;42.690;23.260;2023-04-28T07:34:49;94695.31;;;8.63;44.83
6433;BME280;3249;42.690;23.260;2023-04-28T07:37:21;94676.75;;;8.67;46.38
6433;BME280;3249;42.690;23.260;2023-04-28T07:39:50;94678.38;;;8.75;44.57
6433;BME280;3249;42.690;23.260;2023-04-28T07:42:19;94674.19;;;8.61;44.37
6433;BME280;3249;42.690;23.260;2023-04-28T07:44:48;94673.94;;;8.36;44.70
6433;BME280;3249;42.690;23.260;2023-04-28T07:47:17;94678.63;;;8.26;45.13
6433;BME280;3249;42.690;23.260;2023-04-28T07:49:47;94680.13;;;8.61;44.39
6433;BME280;3249;42.690;23.260;2023-04-28T07:52:21;94673.63;;;8.85;44.44
6433;BME280;3249;42.690;23.260;2023-04-28T07:54:51;94672.81;;;8.71;43.68
6433;BME280;3249;42.690;23.260;2023-04-28T07:57:20;94675.78;;;8.68;45.32
6433;BME280;3249;42.690;23.260;2023-04-28T07:59:49;94680.31;;;8.73;43.19
6433;BME280;3249;42.690;23.260;2023-04-28T08:02:18;94664.56;;;8.82;44.37
6433;BME280;3249;42.690;23.260;2023-04-28T08:04:47;94676.63;;;9.14;43.44
6433;BME280;3249;42.690;23.260;2023-04-28T08:07:17;94680.78;;;9.28;41.03
6433;BME280;3249;42.690;23.260;2023-04-28T08:09:49;94673.25;;;9.46;41.20
6433;BME280;3249;42.690;23.260;2023-04-28T08:12:18;94679.16;;;9.67;40.96
6433;BME280;3249;42.690;23.260;2023-04-28T08:14:46;94686.19;;;9.97;39.32
6433;BME280;3249;42.690;23.260;2023-04-28T08:17:16;94673.59;;;9.83;40.20
6433;BME280;3249;42.690;23.260;2023-04-28T08:19:46;94688.56;;;9.99;38.17
6433;BME280;3249;42.690;23.260;2023-04-28T08:22:16;94676.31;;;10.14;37.75
6433;BME280;3249;42.690;23.260;2023-04-28T08:24:44;94686.34;;;10.28;37.92
6433;BME280;3249;42.690;23.260;2023-04-28T08:27:16;94685.78;;;10.26;38.16
6433;BME280;3249;42.690;23.260;2023-04-28T08:29:45;94687.94;;;10.23;37.47
6433;BME280;3249;42.690;23.260;2023-04-28T08:32:15;94681.84;;;10.04;36.96
6433;BME280;3249;42.690;23.260;2023-04-28T08:34:44;94676.91;;;10.09;37.14
6433;BME280;3249;42.690;23.260;2023-04-28T08:37:13;94663.66;;;10.06;37.07
6433;BME280;3249;42.690;23.260;2023-04-28T08:39:42;94681.41;;;10.27;37.63
6433;BME280;3249;42.690;23.260;2023-04-28T08:42:12;94674.34;;;9.96;38.29
6433;BME280;3249;42.690;23.260;2023-04-28T08:44:45;94671.69;;;10.29;38.65
6433;BME280;3249;42.690;23.260;2023-04-28T08:47:16;94666.72;;;10.34;37.27
6433;BME280;3249;42.690;23.260;2023-04-28T08:49:48;94677.94;;;10.46;36.97
6433;BME280;3249;42.690;23.260;2023-04-28T08:52:18;94672.50;;;10.67;37.10
6433;BME280;3249;42.690;23.260;2023-04-28T08:54:48;94674.41;;;10.78;36.93
6433;BME280;3249;42.690;23.260;2023-04-28T08:57:22;94676.69;;;10.92;36.25
6433;BME280;3249;42.690;23.260;2023-04-28T08:59:57;94671.28;;;10.76;35.90
6433;BME280;3249;42.690;23.260;2023-04-28T09:02:26;94658.16;;;10.84;35.56
6433;BME280;3249;42.690;23.260;2023-04-28T09:04:55;94664.97;;;11.03;36.35
6433;BME280;3249;42.690;23.260;2023-04-28T09:07:24;94659.66;;;10.60;37.57
6433;BME280;3249;42.690;23.260;2023-04-28T09:10:15;94666.44;;;10.86;37.33
6433;BME280;3249;42.690;23.260;2023-04-28T09:12:44;94662.91;;;11.11;36.42
6433;BME280;3249;42.690;23.260;2023-04-28T09:15:30;94650.66;;;11.31;36.21
6433;BME280;3249;42.690;23.260;2023-04-28T09:18:02;94641.78;;;11.03;36.53
6433;BME280;3249;42.690;23.260;2023-04-28T09:20:35;94638.63;;;10.70;36.84
6433;BME280;3249;42.690;23.260;2023-04-28T09:23:15;94648.09;;;10.76;36.04
6433;BME280;3249;42.690;23.260;2023-04-28T09:26:01;94642.88;;;10.51;37.34
6433;BME280;3249;42.690;23.260;2023-04-28T09:28:31;94640.91;;;10.84;36.40
6433;BME280;3249;42.690;23.260;2023-04-28T09:31:04;94648.50;;;11.04;35.89
6433;BME280;3249;42.690;23.260;2023-04-28T09:33:33;94643.91;;;11.06;35.23
6433;BME280;3249;42.690;23.260;2023-04-28T09:36:03;94622.47;;;11.12;36.49
6433;BME280;3249;42.690;23.260;2023-04-28T09:38:42;94635.13;;;10.89;36.87
6433;BME280;3249;42.690;23.260;2023-04-28T09:41:13;94630.88;;;11.01;37.64
6433;BME280;3249;42.690;23.260;2023-04-28T09:43:42;94626.81;;;10.87;37.34
6433;BME280;3249;42.690;23.260;2023-04-28T09:46:27;94633.22;;;10.78;35.63
6433;BME280;3249;42.690;23.260;2023-04-28T09:49:00;94630.06;;;11.00;34.94
6433;BME280;3249;42.690;23.260;2023-04-28T09:51:30;94620.00;;;10.99;34.57
6433;BME280;3249;42.690;23.260;2023-04-28T09:54:01;94626.47;;;11.08;35.31
6433;BME280;3249;42.690;23.260;2023-04-28T09:56:32;94624.13;;;11.24;36.33
6433;BME280;3249;42.690;23.260;2023-04-28T09:59:03;94627.31;;;11.26;34.01
6433;BME280;3249;42.690;23.260;2023-04-28T10:01:54;94607.31;;;11.22;34.62
6433;BME280;3249;42.690;23.260;2023-04-28T10:04:23;94603.31;;;11.26;35.61
6433;BME280;3249;42.690;23.260;2023-04-28T10:06:56;94604.25;;;11.31;35.76
6433;BME280;3249;42.690;23.260;2023-04-28T10:09:26;94602.06;;;11.10;35.58
6433;BME280;3249;42.690;23.260;2023-04-28T10:11:55;94546.97;;;10.87;35.10
6433;BME280;3249;42.690;23.260;2023-04-28T10:14:25;94591.75;;;11.35;36.17
6433;BME280;3249;42.690;23.260;2023-04-28T10:16:58;94598.63;;;11.16;35.58
6433;BME280;3249;42.690;23.260;2023-04-28T10:19:28;94598.69;;;11.10;35.60
6433;BME280;3249;42.690;23.260;2023-04-28T10:22:41;94601.47;;;11.33;34.78
6433;BME280;3249;42.690;23.260;2023-04-28T10:25:25;94600.53;;;11.27;34.49
6433;BME280;3249;42.690;23.260;2023-04-28T10:27:55;94598.28;;;11.37;33.80
6433;BME280;3249;42.690;23.260;2023-04-28T10:30:26;94575.16;;;11.49;35.04
6433;BME280;3249;42.690;23.260;2023-04-28T10:33:24;94583.03;;;11.90;33.25
6433;BME280;3249;42.690;23.260;2023-04-28T10:35:54;94597.38;;;12.04;31.91
6433;BME280;3249;42.690;23.260;2023-04-28T10:38:23;94586.28;;;11.67;32.94
6433;BME280;3249;42.690;23.260;2023-04-28T10:40:53;94591.66;;;11.84;33.06
6433;BME280;3249;42.690;23.260;2023-04-28T10:43:36;94566.31;;;11.63;34.11
6433;BME280;3249;42.690;23.260;2023-04-28T10:46:08;94570.19;;;11.72;34.35
6433;BME280;3249;42.690;23.260;2023-04-28T10:48:56;94559.84;;;11.90;33.38
6433;BME280;3249;42.690;23.260;2023-04-28T10:51:29;94558.16;;;12.13;31.83
6433;BME280;3249;42.690;23.260;2023-04-28T10:54:14;94564.38;;;12.24;33.00
6433;BME280;3249;42.690;23.260;2023-04-28T10:57:15;94557.06;;;12.21;33.27
6433;BME280;3249;42.690;23.260;2023-04-28T10:59:50;94548.19;;;12.17;33.22
6433;BME280;3249;42.690;23.260;2023-04-28T11:02:41;94553.66;;;12.09;32.78
6433;BME280;3249;42.690;23.260;2023-04-28T11:05:16;94560.25;;;12.05;32.08
6433;BME280;3249;42.690;23.260;2023-04-28T11:11:19;94550.59;;;12.30;32.76
6433;BME280;3249;42.690;23.260;2023-04-28T11:13:50;94553.91;;;12.48;32.07
6433;BME280;3249;42.690;23.260;2023-04-28T11:16:21;94546.28;;;12.53;31.64
6433;BME280;3249;42.690;23.260;2023-04-28T11:18:56;94538.31;;;12.55;32.19
6433;BME280;3249;42.690;23.260;2023-04-28T11:21:31;94544.00;;;12.34;30.91
6433;BME280;3249;42.690;23.260;2023-04-28T11:24:10;94535.94;;;12.42;31.38
6433;BME280;3249;42.690;23.260;2023-04-28T11:26:39;94546.47;;;12.40;31.88
6433;BME280;3249;42.690;23.260;2023-04-28T11:29:09;94556.00;;;12.40;31.91
6433;BME280;3249;42.690;23.260;2023-04-28T11:31:48;94541.47;;;12.27;31.70
6433;BME280;3249;42.690;23.260;2023-04-28T11:34:20;94535.13;;;12.30;31.45
6433;BME280;3249;42.690;23.260;2023-04-28T11:36:52;94523.34;;;12.34;31.18
6433;BME280;3249;42.690;23.260;2023-04-28T11:39:25;94535.63;;;12.50;31.67
6433;BME280;3249;42.690;23.260;2023-04-28T11:41:58;94530.03;;;12.64;31.91
6433;BME280;3249;42.690;23.260;2023-04-28T11:44:30;94516.97;;;12.59;30.34
6433;BME280;3249;42.690;23.260;2023-04-28T11:47:03;94513.88;;;12.92;29.82
6433;BME280;3249;42.690;23.260;2023-04-28T11:49:41;94511.00;;;13.11;29.21
6433;BME280;3249;42.690;23.260;2023-04-28T11:52:13;94515.59;;;13.21;28.87
6433;BME280;3249;42.690;23.260;2023-04-28T11:54:43;94519.75;;;13.10;28.21
6433;BME280;3249;42.690;23.260;2023-04-28T11:57:20;94511.00;;;13.11;29.05
6433;BME280;3249;42.690;23.260;2023-04-28T11:59:50;94448.16;;;12.88;30.25
6433;BME280;3249;42.690;23.260;2023-04-28T12:02:24;94453.78;;;12.96;30.00
6433;BME280;3249;42.690;23.260;2023-04-28T12:05:03;94503.00;;;13.24;30.00
6433;BME280;3249;42.690;23.260;2023-04-28T12:07:42;94487.06;;;13.04;29.46
6433;BME280;3249;42.690;23.260;2023-04-28T12:10:13;94470.78;;;13.04;29.93
6433;BME280;3249;42.690;23.260;2023-04-28T12:12:45;94496.34;;;13.51;30.19
6433;BME280;3249;42.690;23.260;2023-04-28T12:15:15;94499.84;;;13.34;30.14
6433;BME280;3249;42.690;23.260;2023-04-28T12:17:44;94499.84;;;13.34;29.86
6433;BME280;3249;42.690;23.260;2023-04-28T12:20:32;94497.59;;;13.49;29.45
6433;BME280;3249;42.690;23.260;2023-04-28T12:23:05;94491.38;;;13.61;29.23
6433;BME280;3249;42.690;23.260;2023-04-28T12:25:42;94436.91;;;13.28;28.92
6433;BME280;3249;42.690;23.260;2023-04-28T12:28:12;94488.69;;;13.56;28.80
6433;BME280;3249;42.690;23.260;2023-04-28T12:30:41;94481.97;;;13.21;29.10
6433;BME280;3249;42.690;23.260;2023-04-28T12:33:24;94482.53;;;13.46;29.08
6433;BME280;3249;42.690;23.260;2023-04-28T12:35:55;94461.16;;;13.39;29.36
6433;BME280;3249;42.690;23.260;2023-04-28T12:38:28;94482.19;;;13.82;29.47
6433;BME280;3249;42.690;23.260;2023-04-28T12:40:57;94485.69;;;14.04;28.63
6433;BME280;3249;42.690;23.260;2023-04-28T12:43:29;94479.91;;;14.14;29.14
6433;BME280;3249;42.690;23.260;2023-04-28T12:46:00;94480.03;;;14.19;28.42
6433;BME280;3249;42.690;23.260;2023-04-28T12:48:29;94469.16;;;14.33;29.01
6433;BME280;3249;42.690;23.260;2023-04-28T12:50:59;94480.91;;;14.24;28.22
6433;BME280;3249;42.690;23.260;2023-04-28T12:53:31;94466.41;;;14.23;29.61
6433;BME280;3249;42.690;23.260;2023-04-28T12:56:00;94464.00;;;14.33;29.75
6433;BME280;3249;42.690;23.260;2023-04-28T12:58:30;94470.34;;;14.14;28.51
6433;BME280;3249;42.690;23.260;2023-04-28T13:00:59;94465.19;;;14.14;29.35
6433;BME280;3249;42.690;23.260;2023-04-28T13:03:28;94459.28;;;14.02;28.63
6433;BME280;3249;42.690;23.260;2023-04-28T13:05:59;94449.69;;;14.02;28.94
6433;BME280;3249;42.690;23.260;2023-04-28T13:08:31;94407.94;;;13.82;28.96
6433;BME280;3249;42.690;23.260;2023-04-28T13:11:01;94445.00;;;14.28;29.29
6433;BME280;3249;42.690;23.260;2023-04-28T13:13:31;94439.59;;;14.29;29.72
6433;BME280;3249;42.690;23.260;2023-04-28T13:16:00;94448.19;;;14.07;29.83
6433;BME280;3249;42.690;23.260;2023-04-28T13:18:29;94443.78;;;14.19;29.77
6433;BME280;3249;42.690;23.260;2023-04-28T13:20:59;94437.81;;;14.18;30.20
6433;BME280;3249;42.690;23.260;2023-04-28T13:23:27;94436.25;;;14.17;30.06
6433;BME280;3249;42.690;23.260;2023-04-28T13:25:59;94442.16;;;14.46;29.77
6433;BME280;3249;42.690;23.260;2023-04-28T13:28:29;94436.75;;;14.47;28.99
6433;BME280;3249;42.690;23.260;2023-04-28T13:30:58;94441.78;;;14.70;29.04
6433;BME280;3249;42.690;23.260;2023-04-28T13:33:27;94447.03;;;14.75;28.76
6433;BME280;3249;42.690;23.260;2023-04-28T13:35:57;94449.63;;;14.75;27.92
6433;BME280;3249;42.690;23.260;2023-04-28T13:38:26;94451.09;;;14.71;28.23
6433;BME280;3249;42.690;23.260;2023-04-28T13:40:55;94452.53;;;14.79;28.35
6433;BME280;3249;42.690;23.260;2023-04-28T13:43:27;94445.63;;;14.68;28.16